Fuji Maru — JD2030 — position and weather

sailwx.info

Track history (hours):
 
Tides and Currents Weather Stations Pressure Air Temp Water Temp Dewpoint Dewpoint Depression Visibility Wind Speed Wind Dir Waves Ship Positions

Fuji Maru

Last reported at 2014-Nov-26 19:32 UTC. Time now 2014-Nov-26 20:21 UTC.
Position N 35°29' E 139°39'.

Length 38 m; draft 4.4 m.

Type: Tug. MMSI: 431001102.

Date/timePositionNaut miles runAvg speedWind from/ knotsBaromVisibWave heightAir tempDewpointWater temp
2014-Nov-26 19:32N 35°29' E 139°39'0 0.0
2014-Nov-26 18:32N 35°29' E 139°39'0 0.0
2014-Nov-26 17:32N 35°29' E 139°39'0 0.0
2014-Nov-26 16:32N 35°29' E 139°39'0 0.0
2014-Nov-26 15:32N 35°29' E 139°39'0 0.0
2014-Nov-26 14:32N 35°29' E 139°39'0 0.0
2014-Nov-26 13:32N 35°29' E 139°39'0 0.0
2014-Nov-26 12:32N 35°29' E 139°39'0 0.0
2014-Nov-26 11:32N 35°29' E 139°39'0 0.0
2014-Nov-26 10:32N 35°29' E 139°39'0 0.0
2014-Nov-26 09:32N 35°29' E 139°39'0 0.0
2014-Nov-26 08:32N 35°29' E 139°39'0 0.0
2014-Nov-26 07:32N 35°29' E 139°39'0 0.0
2014-Nov-26 06:32N 35°29' E 139°39'0 0.0
2014-Nov-26 05:32N 35°29' E 139°39'0 0.0
2014-Nov-26 04:32N 35°29' E 139°39'0 0.0
2014-Nov-26 03:32N 35°29' E 139°39'0 0.0
2014-Nov-26 02:32N 35°29' E 139°39'0 0.0
2014-Nov-26 01:32N 35°29' E 139°39'0 0.0
2014-Nov-26 00:32N 35°29' E 139°39'0 0.0
2014-Nov-25 23:32N 35°29' E 139°39'0 0.0
2014-Nov-25 22:32N 35°29' E 139°39'0 0.0
2014-Nov-25 21:32N 35°29' E 139°39'0 0.0
2014-Nov-25 20:32N 35°29' E 139°39'0 0.0
2014-Nov-25 19:32N 35°29' E 139°39'0 0.0
2014-Nov-25 18:32N 35°29' E 139°39'0 0.0
2014-Nov-25 17:32N 35°29' E 139°39'0 0.0
2014-Nov-25 16:32N 35°29' E 139°39'0 0.0
2014-Nov-25 15:32N 35°29' E 139°39'0 0.0
2014-Nov-25 14:32N 35°29' E 139°39'0 0.0
2014-Nov-25 13:32N 35°29' E 139°39'0 0.0
2014-Nov-25 12:32N 35°29' E 139°39'0 0.0
2014-Nov-25 11:32N 35°29' E 139°39'0 0.0
2014-Nov-25 10:32N 35°29' E 139°39'0 0.0
2014-Nov-25 09:32N 35°29' E 139°39'0 0.0
2014-Nov-25 08:32N 35°29' E 139°39'0 0.0
2014-Nov-25 07:32N 35°29' E 139°39'0 0.1
2014-Nov-25 06:32N 35°29' E 139°39'0 0.0
2014-Nov-25 05:32N 35°29' E 139°39'0 0.0
2014-Nov-25 04:32N 35°29' E 139°39'0 0.0
2014-Nov-25 03:32N 35°29' E 139°39'0 0.0
2014-Nov-25 02:32N 35°29' E 139°39'0 0.0
2014-Nov-25 01:32N 35°29' E 139°39'0 0.1
2014-Nov-25 00:34N 35°29' E 139°39'6 5.9
2014-Nov-24 23:33N 35°30' E 139°46'8 0.2
2014-Nov-23 02:14N 35°39' E 139°46'0 0.4
2014-Nov-23 01:15N 35°38' E 139°46'2 0.1
2014-Nov-22 08:32N 35°36' E 139°47'1 0.1
2014-Nov-21 23:33N 35°37' E 139°46'3 2.9
2014-Nov-21 22:33N 35°35' E 139°48'1 0.9
2014-Nov-21 21:12N 35°36' E 139°48'2 2.5
2014-Nov-21 20:33N 35°37' E 139°46'1 0.1
2014-Nov-21 06:24N 35°38' E 139°46'4 4.9
2014-Nov-21 05:33N 35°34' E 139°48'2 1.6
2014-Nov-21 04:28N 35°35' E 139°47'1 0.5
2014-Nov-21 03:26N 35°36' E 139°47'2 1.9
2014-Nov-21 02:25N 35°37' E 139°46'1 0.0
2014-Nov-20 11:28N 35°38' E 139°46'2 2.7
2014-Nov-20 10:33N 35°36' E 139°47'2 1.8
2014-Nov-20 09:33N 35°34' E 139°48'3 2.8
2014-Nov-20 08:30N 35°37' E 139°46'1 1.0
2014-Nov-20 07:13N 35°36' E 139°48'2 0.0
2014-Nov-18 23:33N 35°37' E 139°46'3 3.0
2014-Nov-18 22:33N 35°35' E 139°48'4 1.9
2014-Nov-18 20:32N 35°38' E 139°46'1 0.0
2014-Nov-17 23:13N 35°38' E 139°46'4 4.7
2014-Nov-17 22:28N 35°35' E 139°47'1 0.3
2014-Nov-17 20:23N 35°35' E 139°47'3 2.6
2014-Nov-17 19:19N 35°38' E 139°45'0 0.0
2014-Nov-17 00:27N 35°38' E 139°46'3 3.2
2014-Nov-16 23:31N 35°36' E 139°47'1 0.8
2014-Nov-16 22:33N 35°35' E 139°47'  
Track history (hours):
 
Tides and Currents Weather Stations Pressure Air Temp Water Temp Dewpoint Dewpoint Depression Visibility Wind Speed Wind Dir Waves Ship Positions

Fuji Maru

Last reported at 2014-Nov-26 19:32 UTC. Time now 2014-Nov-26 20:21 UTC.
Position N 35°29' E 139°39'.

Length 38 m; draft 4.4 m.

Type: Tug. MMSI: 431001102.

Date/timePositionNaut miles runAvg speedWind from/ knotsBaromVisibWave heightAir tempDewpointWater temp
2014-Nov-26 19:32N 35°29' E 139°39'0 0.0
2014-Nov-26 18:32N 35°29' E 139°39'0 0.0
2014-Nov-26 17:32N 35°29' E 139°39'0 0.0
2014-Nov-26 16:32N 35°29' E 139°39'0 0.0
2014-Nov-26 15:32N 35°29' E 139°39'0 0.0
2014-Nov-26 14:32N 35°29' E 139°39'0 0.0
2014-Nov-26 13:32N 35°29' E 139°39'0 0.0
2014-Nov-26 12:32N 35°29' E 139°39'0 0.0
2014-Nov-26 11:32N 35°29' E 139°39'0 0.0
2014-Nov-26 10:32N 35°29' E 139°39'0 0.0
2014-Nov-26 09:32N 35°29' E 139°39'0 0.0
2014-Nov-26 08:32N 35°29' E 139°39'0 0.0
2014-Nov-26 07:32N 35°29' E 139°39'0 0.0
2014-Nov-26 06:32N 35°29' E 139°39'0 0.0
2014-Nov-26 05:32N 35°29' E 139°39'0 0.0
2014-Nov-26 04:32N 35°29' E 139°39'0 0.0
2014-Nov-26 03:32N 35°29' E 139°39'0 0.0
2014-Nov-26 02:32N 35°29' E 139°39'0 0.0
2014-Nov-26 01:32N 35°29' E 139°39'0 0.0
2014-Nov-26 00:32N 35°29' E 139°39'0 0.0
2014-Nov-25 23:32N 35°29' E 139°39'0 0.0
2014-Nov-25 22:32N 35°29' E 139°39'0 0.0
2014-Nov-25 21:32N 35°29' E 139°39'0 0.0
2014-Nov-25 20:32N 35°29' E 139°39'0 0.0
2014-Nov-25 19:32N 35°29' E 139°39'0 0.0
2014-Nov-25 18:32N 35°29' E 139°39'0 0.0
2014-Nov-25 17:32N 35°29' E 139°39'0 0.0
2014-Nov-25 16:32N 35°29' E 139°39'0 0.0
2014-Nov-25 15:32N 35°29' E 139°39'0 0.0
2014-Nov-25 14:32N 35°29' E 139°39'0 0.0
2014-Nov-25 13:32N 35°29' E 139°39'0 0.0
2014-Nov-25 12:32N 35°29' E 139°39'0 0.0
2014-Nov-25 11:32N 35°29' E 139°39'0 0.0
2014-Nov-25 10:32N 35°29' E 139°39'0 0.0
2014-Nov-25 09:32N 35°29' E 139°39'0 0.0
2014-Nov-25 08:32N 35°29' E 139°39'0 0.0
2014-Nov-25 07:32N 35°29' E 139°39'0 0.1
2014-Nov-25 06:32N 35°29' E 139°39'0 0.0
2014-Nov-25 05:32N 35°29' E 139°39'0 0.0
2014-Nov-25 04:32N 35°29' E 139°39'0 0.0
2014-Nov-25 03:32N 35°29' E 139°39'0 0.0
2014-Nov-25 02:32N 35°29' E 139°39'0 0.0
2014-Nov-25 01:32N 35°29' E 139°39'0 0.1
2014-Nov-25 00:34N 35°29' E 139°39'6 5.9
2014-Nov-24 23:33N 35°30' E 139°46'8 0.2
2014-Nov-23 02:14N 35°39' E 139°46'0 0.4
2014-Nov-23 01:15N 35°38' E 139°46'2 0.1
2014-Nov-22 08:32N 35°36' E 139°47'1 0.1
2014-Nov-21 23:33N 35°37' E 139°46'3 2.9
2014-Nov-21 22:33N 35°35' E 139°48'1 0.9
2014-Nov-21 21:12N 35°36' E 139°48'2 2.5
2014-Nov-21 20:33N 35°37' E 139°46'1 0.1
2014-Nov-21 06:24N 35°38' E 139°46'4 4.9
2014-Nov-21 05:33N 35°34' E 139°48'2 1.6
2014-Nov-21 04:28N 35°35' E 139°47'1 0.5
2014-Nov-21 03:26N 35°36' E 139°47'2 1.9
2014-Nov-21 02:25N 35°37' E 139°46'1 0.0
2014-Nov-20 11:28N 35°38' E 139°46'2 2.7
2014-Nov-20 10:33N 35°36' E 139°47'2 1.8
2014-Nov-20 09:33N 35°34' E 139°48'3 2.8
2014-Nov-20 08:30N 35°37' E 139°46'1 1.0
2014-Nov-20 07:13N 35°36' E 139°48'2 0.0
2014-Nov-18 23:33N 35°37' E 139°46'3 3.0
2014-Nov-18 22:33N 35°35' E 139°48'4 1.9
2014-Nov-18 20:32N 35°38' E 139°46'1 0.0
2014-Nov-17 23:13N 35°38' E 139°46'4 4.7
2014-Nov-17 22:28N 35°35' E 139°47'1 0.3
2014-Nov-17 20:23N 35°35' E 139°47'3 2.6
2014-Nov-17 19:19N 35°38' E 139°45'0 0.0
2014-Nov-17 00:27N 35°38' E 139°46'3 3.2
2014-Nov-16 23:31N 35°36' E 139°47'1 0.8
2014-Nov-16 22:33N 35°35' E 139°47'  

Dump ship's entire track history